sensor_id;sensor_type;location;lat;lon;timestamp;P1;durP1;ratioP1;P2;durP2;ratioP2
16998;SDS011;10211;49.476;11.010;2023-03-14T00:01:20;0.80;;;0.80;;
16998;SDS011;10211;49.476;11.010;2023-03-14T00:03:47;0.70;;;0.70;;
16998;SDS011;10211;49.476;11.010;2023-03-14T00:06:14;0.80;;;0.80;;
16998;SDS011;10211;49.476;11.010;2023-03-14T00:08:41;1.10;;;1.00;;
16998;SDS011;10211;49.476;11.010;2023-03-14T00:11:10;0.90;;;0.90;;
16998;SDS011;10211;49.476;11.010;2023-03-14T00:13:39;2.87;;;0.83;;
16998;SDS011;10211;49.476;11.010;2023-03-14T00:16:07;0.70;;;0.70;;
16998;SDS011;10211;49.476;11.010;2023-03-14T00:18:36;1.87;;;0.87;;
16998;SDS011;10211;49.476;11.010;2023-03-14T00:21:03;0.70;;;0.70;;
16998;SDS011;10211;49.476;11.010;2023-03-14T00:23:32;1.33;;;0.60;;
16998;SDS011;10211;49.476;11.010;2023-03-14T00:26:01;0.60;;;0.60;;
16998;SDS011;10211;49.476;11.010;2023-03-14T00:28:28;0.60;;;0.60;;
16998;SDS011;10211;49.476;11.010;2023-03-14T00:30:56;0.70;;;0.70;;
16998;SDS011;10211;49.476;11.010;2023-03-14T00:33:24;0.60;;;0.60;;
16998;SDS011;10211;49.476;11.010;2023-03-14T00:35:54;0.70;;;0.70;;
16998;SDS011;10211;49.476;11.010;2023-03-14T00:38:22;0.73;;;0.70;;
16998;SDS011;10211;49.476;11.010;2023-03-14T00:40:49;0.50;;;0.50;;
16998;SDS011;10211;49.476;11.010;2023-03-14T00:43:16;0.83;;;0.60;;
16998;SDS011;10211;49.476;11.010;2023-03-14T00:45:43;1.53;;;0.50;;
16998;SDS011;10211;49.476;11.010;2023-03-14T00:48:11;0.40;;;0.40;;
16998;SDS011;10211;49.476;11.010;2023-03-14T00:50:38;0.50;;;0.50;;
16998;SDS011;10211;49.476;11.010;2023-03-14T00:53:05;0.40;;;0.40;;
16998;SDS011;10211;49.476;11.010;2023-03-14T00:55:32;0.47;;;0.40;;
16998;SDS011;10211;49.476;11.010;2023-03-14T00:58:03;0.50;;;0.50;;
16998;SDS011;10211;49.476;11.010;2023-03-14T01:00:29;0.50;;;0.50;;
16998;SDS011;10211;49.476;11.010;2023-03-14T01:02:56;0.60;;;0.60;;
16998;SDS011;10211;49.476;11.010;2023-03-14T01:05:24;0.57;;;0.57;;
16998;SDS011;10211;49.476;11.010;2023-03-14T01:07:51;0.40;;;0.40;;
16998;SDS011;10211;49.476;11.010;2023-03-14T01:10:18;0.60;;;0.40;;
16998;SDS011;10211;49.476;11.010;2023-03-14T01:12:45;0.50;;;0.47;;
16998;SDS011;10211;49.476;11.010;2023-03-14T01:15:12;0.40;;;0.40;;
16998;SDS011;10211;49.476;11.010;2023-03-14T01:17:38;0.40;;;0.40;;
16998;SDS011;10211;49.476;11.010;2023-03-14T01:20:06;1.00;;;0.63;;
16998;SDS011;10211;49.476;11.010;2023-03-14T01:22:36;0.40;;;0.40;;
16998;SDS011;10211;49.476;11.010;2023-03-14T01:25:05;0.40;;;0.40;;
16998;SDS011;10211;49.476;11.010;2023-03-14T01:27:32;0.40;;;0.40;;
16998;SDS011;10211;49.476;11.010;2023-03-14T01:29:59;0.50;;;0.50;;
16998;SDS011;10211;49.476;11.010;2023-03-14T01:32:26;0.50;;;0.50;;
16998;SDS011;10211;49.476;11.010;2023-03-14T01:34:52;0.60;;;0.60;;
16998;SDS011;10211;49.476;11.010;2023-03-14T01:37:19;0.50;;;0.50;;
16998;SDS011;10211;49.476;11.010;2023-03-14T01:39:47;0.50;;;0.50;;
16998;SDS011;10211;49.476;11.010;2023-03-14T01:42:14;0.30;;;0.30;;
16998;SDS011;10211;49.476;11.010;2023-03-14T01:44:48;0.30;;;0.30;;
16998;SDS011;10211;49.476;11.010;2023-03-14T01:47:16;0.50;;;0.50;;
16998;SDS011;10211;49.476;11.010;2023-03-14T01:49:43;0.50;;;0.50;;
16998;SDS011;10211;49.476;11.010;2023-03-14T01:52:13;0.47;;;0.47;;
16998;SDS011;10211;49.476;11.010;2023-03-14T01:54:43;0.50;;;0.50;;
16998;SDS011;10211;49.476;11.010;2023-03-14T01:57:14;0.57;;;0.57;;
16998;SDS011;10211;49.476;11.010;2023-03-14T01:59:44;0.63;;;0.50;;
16998;SDS011;10211;49.476;11.010;2023-03-14T02:02:14;0.53;;;0.53;;
16998;SDS011;10211;49.476;11.010;2023-03-14T02:04:42;0.53;;;0.50;;
16998;SDS011;10211;49.476;11.010;2023-03-14T02:07:10;0.60;;;0.60;;
16998;SDS011;10211;49.476;11.010;2023-03-14T02:09:41;0.60;;;0.50;;
16998;SDS011;10211;49.476;11.010;2023-03-14T02:12:09;0.50;;;0.50;;
16998;SDS011;10211;49.476;11.010;2023-03-14T02:14:38;1.13;;;0.57;;
16998;SDS011;10211;49.476;11.010;2023-03-14T02:17:07;0.60;;;0.60;;
16998;SDS011;10211;49.476;11.010;2023-03-14T02:19:37;0.40;;;0.40;;
16998;SDS011;10211;49.476;11.010;2023-03-14T02:22:19;0.60;;;0.50;;
16998;SDS011;10211;49.476;11.010;2023-03-14T02:24:46;0.50;;;0.50;;
16998;SDS011;10211;49.476;11.010;2023-03-14T02:27:25;1.03;;;0.40;;
16998;SDS011;10211;49.476;11.010;2023-03-14T02:29:53;0.30;;;0.30;;
16998;SDS011;10211;49.476;11.010;2023-03-14T02:32:22;0.50;;;0.40;;
16998;SDS011;10211;49.476;11.010;2023-03-14T02:34:52;0.73;;;0.50;;
16998;SDS011;10211;49.476;11.010;2023-03-14T02:37:21;0.33;;;0.33;;
16998;SDS011;10211;49.476;11.010;2023-03-14T02:39:53;0.50;;;0.50;;
16998;SDS011;10211;49.476;11.010;2023-03-14T02:42:20;0.43;;;0.40;;
16998;SDS011;10211;49.476;11.010;2023-03-14T02:44:50;1.07;;;0.40;;
16998;SDS011;10211;49.476;11.010;2023-03-14T02:47:18;1.03;;;0.50;;
16998;SDS011;10211;49.476;11.010;2023-03-14T02:49:50;0.30;;;0.30;;
16998;SDS011;10211;49.476;11.010;2023-03-14T02:52:19;0.50;;;0.50;;
16998;SDS011;10211;49.476;11.010;2023-03-14T02:54:46;0.37;;;0.37;;
16998;SDS011;10211;49.476;11.010;2023-03-14T02:57:12;1.60;;;0.40;;
16998;SDS011;10211;49.476;11.010;2023-03-14T02:59:39;0.50;;;0.40;;
16998;SDS011;10211;49.476;11.010;2023-03-14T03:02:07;0.50;;;0.50;;
16998;SDS011;10211;49.476;11.010;2023-03-14T03:04:34;1.50;;;0.50;;
16998;SDS011;10211;49.476;11.010;2023-03-14T03:07:00;4.13;;;0.60;;
16998;SDS011;10211;49.476;11.010;2023-03-14T03:09:27;0.97;;;0.50;;
16998;SDS011;10211;49.476;11.010;2023-03-14T03:11:54;0.70;;;0.40;;
16998;SDS011;10211;49.476;11.010;2023-03-14T03:14:21;0.97;;;0.53;;
16998;SDS011;10211;49.476;11.010;2023-03-14T03:16:48;0.50;;;0.50;;
16998;SDS011;10211;49.476;11.010;2023-03-14T03:19:16;1.50;;;0.30;;
16998;SDS011;10211;49.476;11.010;2023-03-14T03:21:42;0.37;;;0.37;;
16998;SDS011;10211;49.476;11.010;2023-03-14T03:24:09;0.40;;;0.40;;
16998;SDS011;10211;49.476;11.010;2023-03-14T03:26:36;0.40;;;0.40;;
16998;SDS011;10211;49.476;11.010;2023-03-14T03:29:03;0.57;;;0.43;;
16998;SDS011;10211;49.476;11.010;2023-03-14T03:31:30;0.50;;;0.50;;
16998;SDS011;10211;49.476;11.010;2023-03-14T03:33:56;0.30;;;0.30;;
16998;SDS011;10211;49.476;11.010;2023-03-14T03:36:25;0.30;;;0.30;;
16998;SDS011;10211;49.476;11.010;2023-03-14T03:38:52;0.57;;;0.37;;
16998;SDS011;10211;49.476;11.010;2023-03-14T03:41:19;0.40;;;0.40;;
16998;SDS011;10211;49.476;11.010;2023-03-14T03:43:47;0.50;;;0.50;;
16998;SDS011;10211;49.476;11.010;2023-03-14T03:46:13;0.40;;;0.40;;
16998;SDS011;10211;49.476;11.010;2023-03-14T03:48:40;0.40;;;0.40;;
16998;SDS011;10211;49.476;11.010;2023-03-14T03:51:09;0.40;;;0.40;;
16998;SDS011;10211;49.476;11.010;2023-03-14T03:53:40;0.57;;;0.50;;
16998;SDS011;10211;49.476;11.010;2023-03-14T03:56:08;0.30;;;0.30;;
16998;SDS011;10211;49.476;11.010;2023-03-14T03:58:35;1.03;;;0.40;;
16998;SDS011;10211;49.476;11.010;2023-03-14T04:01:03;0.43;;;0.37;;
16998;SDS011;10211;49.476;11.010;2023-03-14T04:03:31;0.40;;;0.40;;
16998;SDS011;10211;49.476;11.010;2023-03-14T04:05:58;0.30;;;0.30;;
16998;SDS011;10211;49.476;11.010;2023-03-14T04:08:25;0.20;;;0.20;;
16998;SDS011;10211;49.476;11.010;2023-03-14T04:10:55;0.40;;;0.40;;
16998;SDS011;10211;49.476;11.010;2023-03-14T04:13:22;0.43;;;0.40;;
16998;SDS011;10211;49.476;11.010;2023-03-14T04:15:49;0.30;;;0.30;;
16998;SDS011;10211;49.476;11.010;2023-03-14T04:18:17;0.30;;;0.30;;
16998;SDS011;10211;49.476;11.010;2023-03-14T04:20:44;0.30;;;0.30;;
16998;SDS011;10211;49.476;11.010;2023-03-14T04:23:11;0.43;;;0.33;;
16998;SDS011;10211;49.476;11.010;2023-03-14T04:25:37;0.30;;;0.30;;
16998;SDS011;10211;49.476;11.010;2023-03-14T04:28:05;0.50;;;0.50;;
16998;SDS011;10211;49.476;11.010;2023-03-14T04:30:32;0.30;;;0.30;;
16998;SDS011;10211;49.476;11.010;2023-03-14T04:32:59;0.30;;;0.30;;
16998;SDS011;10211;49.476;11.010;2023-03-14T04:35:26;0.20;;;0.20;;
16998;SDS011;10211;49.476;11.010;2023-03-14T04:37:52;0.40;;;0.40;;
16998;SDS011;10211;49.476;11.010;2023-03-14T04:40:19;0.30;;;0.30;;
16998;SDS011;10211;49.476;11.010;2023-03-14T04:42:46;0.20;;;0.20;;
16998;SDS011;10211;49.476;11.010;2023-03-14T04:45:14;0.33;;;0.33;;
16998;SDS011;10211;49.476;11.010;2023-03-14T04:47:41;1.90;;;0.30;;
16998;SDS011;10211;49.476;11.010;2023-03-14T04:50:08;2.43;;;0.57;;
16998;SDS011;10211;49.476;11.010;2023-03-14T04:52:36;0.27;;;0.27;;
16998;SDS011;10211;49.476;11.010;2023-03-14T04:55:03;0.40;;;0.40;;
16998;SDS011;10211;49.476;11.010;2023-03-14T04:57:30;0.33;;;0.30;;
16998;SDS011;10211;49.476;11.010;2023-03-14T04:59:56;0.20;;;0.20;;
16998;SDS011;10211;49.476;11.010;2023-03-14T05:02:24;0.40;;;0.40;;
16998;SDS011;10211;49.476;11.010;2023-03-14T05:04:52;0.50;;;0.40;;
16998;SDS011;10211;49.476;11.010;2023-03-14T05:07:18;3.97;;;0.60;;
16998;SDS011;10211;49.476;11.010;2023-03-14T05:09:45;0.40;;;0.40;;
16998;SDS011;10211;49.476;11.010;2023-03-14T05:12:12;0.30;;;0.30;;
16998;SDS011;10211;49.476;11.010;2023-03-14T05:14:38;1.13;;;0.30;;
16998;SDS011;10211;49.476;11.010;2023-03-14T05:17:05;2.10;;;0.40;;
16998;SDS011;10211;49.476;11.010;2023-03-14T05:19:33;0.73;;;0.50;;
16998;SDS011;10211;49.476;11.010;2023-03-14T05:22:01;0.30;;;0.30;;
16998;SDS011;10211;49.476;11.010;2023-03-14T05:24:27;4.50;;;0.47;;
16998;SDS011;10211;49.476;11.010;2023-03-14T05:26:54;0.30;;;0.30;;
16998;SDS011;10211;49.476;11.010;2023-03-14T05:29:21;0.30;;;0.30;;
16998;SDS011;10211;49.476;11.010;2023-03-14T05:31:47;1.60;;;0.30;;
16998;SDS011;10211;49.476;11.010;2023-03-14T05:34:14;1.47;;;0.50;;
16998;SDS011;10211;49.476;11.010;2023-03-14T05:36:42;0.40;;;0.40;;
16998;SDS011;10211;49.476;11.010;2023-03-14T05:39:09;0.30;;;0.30;;
16998;SDS011;10211;49.476;11.010;2023-03-14T05:41:36;0.33;;;0.33;;
16998;SDS011;10211;49.476;11.010;2023-03-14T05:44:02;0.20;;;0.20;;
16998;SDS011;10211;49.476;11.010;2023-03-14T05:46:29;0.40;;;0.40;;
16998;SDS011;10211;49.476;11.010;2023-03-14T05:48:56;0.83;;;0.30;;
16998;SDS011;10211;49.476;11.010;2023-03-14T05:51:23;0.30;;;0.30;;
16998;SDS011;10211;49.476;11.010;2023-03-14T05:53:52;0.30;;;0.30;;
16998;SDS011;10211;49.476;11.010;2023-03-14T05:56:18;0.20;;;0.20;;
16998;SDS011;10211;49.476;11.010;2023-03-14T05:58:45;2.07;;;0.40;;
16998;SDS011;10211;49.476;11.010;2023-03-14T06:01:12;1.10;;;0.30;;
16998;SDS011;10211;49.476;11.010;2023-03-14T06:03:38;0.43;;;0.43;;
16998;SDS011;10211;49.476;11.010;2023-03-14T06:06:05;0.30;;;0.30;;
16998;SDS011;10211;49.476;11.010;2023-03-14T06:08:32;0.30;;;0.30;;
16998;SDS011;10211;49.476;11.010;2023-03-14T06:11:01;0.83;;;0.30;;
16998;SDS011;10211;49.476;11.010;2023-03-14T06:13:29;1.13;;;0.50;;
16998;SDS011;10211;49.476;11.010;2023-03-14T06:15:55;0.80;;;0.40;;
16998;SDS011;10211;49.476;11.010;2023-03-14T06:18:22;0.50;;;0.50;;
16998;SDS011;10211;49.476;11.010;2023-03-14T06:20:49;0.40;;;0.40;;
16998;SDS011;10211;49.476;11.010;2023-03-14T06:23:19;1.10;;;0.43;;
16998;SDS011;10211;49.476;11.010;2023-03-14T06:25:45;0.43;;;0.43;;
16998;SDS011;10211;49.476;11.010;2023-03-14T06:28:13;4.97;;;0.57;;
16998;SDS011;10211;49.476;11.010;2023-03-14T06:30:40;0.50;;;0.40;;
16998;SDS011;10211;49.476;11.010;2023-03-14T06:33:07;1.27;;;0.50;;
16998;SDS011;10211;49.476;11.010;2023-03-14T06:35:34;0.50;;;0.50;;
16998;SDS011;10211;49.476;11.010;2023-03-14T06:38:00;2.47;;;0.83;;
16998;SDS011;10211;49.476;11.010;2023-03-14T06:40:27;0.83;;;0.53;;
16998;SDS011;10211;49.476;11.010;2023-03-14T06:42:54;0.73;;;0.67;;
16998;SDS011;10211;49.476;11.010;2023-03-14T06:45:22;1.23;;;0.77;;
16998;SDS011;10211;49.476;11.010;2023-03-14T06:47:49;0.70;;;0.60;;
16998;SDS011;10211;49.476;11.010;2023-03-14T06:50:16;1.33;;;0.73;;
16998;SDS011;10211;49.476;11.010;2023-03-14T06:52:42;0.43;;;0.43;;
16998;SDS011;10211;49.476;11.010;2023-03-14T06:55:12;2.20;;;0.50;;
16998;SDS011;10211;49.476;11.010;2023-03-14T06:57:39;1.30;;;0.80;;
16998;SDS011;10211;49.476;11.010;2023-03-14T07:00:07;1.70;;;1.03;;
16998;SDS011;10211;49.476;11.010;2023-03-14T07:02:36;0.97;;;0.60;;
16998;SDS011;10211;49.476;11.010;2023-03-14T07:05:03;3.13;;;0.77;;
16998;SDS011;10211;49.476;11.010;2023-03-14T07:07:30;4.97;;;0.60;;
16998;SDS011;10211;49.476;11.010;2023-03-14T07:09:57;1.07;;;0.70;;
16998;SDS011;10211;49.476;11.010;2023-03-14T07:12:24;1.00;;;0.90;;
16998;SDS011;10211;49.476;11.010;2023-03-14T07:14:50;1.43;;;0.57;;
16998;SDS011;10211;49.476;11.010;2023-03-14T07:17:17;0.77;;;0.53;;
16998;SDS011;10211;49.476;11.010;2023-03-14T07:19:45;0.80;;;0.60;;
16998;SDS011;10211;49.476;11.010;2023-03-14T07:22:12;1.40;;;0.80;;
16998;SDS011;10211;49.476;11.010;2023-03-14T07:24:38;1.70;;;0.80;;
16998;SDS011;10211;49.476;11.010;2023-03-14T07:27:05;0.80;;;0.80;;
16998;SDS011;10211;49.476;11.010;2023-03-14T07:29:32;3.60;;;0.87;;
16998;SDS011;10211;49.476;11.010;2023-03-14T07:31:58;0.60;;;0.60;;
16998;SDS011;10211;49.476;11.010;2023-03-14T07:34:25;0.87;;;0.70;;
16998;SDS011;10211;49.476;11.010;2023-03-14T07:36:53;2.90;;;1.07;;
16998;SDS011;10211;49.476;11.010;2023-03-14T07:39:22;2.20;;;1.00;;
16998;SDS011;10211;49.476;11.010;2023-03-14T07:41:49;0.83;;;0.70;;
16998;SDS011;10211;49.476;11.010;2023-03-14T07:44:16;0.60;;;0.60;;
16998;SDS011;10211;49.476;11.010;2023-03-14T07:46:42;1.87;;;1.20;;
16998;SDS011;10211;49.476;11.010;2023-03-14T07:49:09;1.23;;;1.03;;
16998;SDS011;10211;49.476;11.010;2023-03-14T07:51:36;1.37;;;0.70;;
16998;SDS011;10211;49.476;11.010;2023-03-14T07:54:04;2.87;;;0.67;;
16998;SDS011;10211;49.476;11.010;2023-03-14T07:56:31;1.17;;;0.70;;
16998;SDS011;10211;49.476;11.010;2023-03-14T07:58:57;0.80;;;0.73;;
16998;SDS011;10211;49.476;11.010;2023-03-14T08:01:24;1.23;;;0.60;;
16998;SDS011;10211;49.476;11.010;2023-03-14T08:03:51;2.10;;;0.80;;
16998;SDS011;10211;49.476;11.010;2023-03-14T08:06:18;1.20;;;0.80;;
16998;SDS011;10211;49.476;11.010;2023-03-14T08:08:44;2.47;;;0.60;;
16998;SDS011;10211;49.476;11.010;2023-03-14T08:11:12;1.27;;;0.70;;
16998;SDS011;10211;49.476;11.010;2023-03-14T08:13:39;1.70;;;0.70;;
16998;SDS011;10211;49.476;11.010;2023-03-14T08:16:06;1.03;;;0.93;;
16998;SDS011;10211;49.476;11.010;2023-03-14T08:18:33;1.20;;;0.80;;
16998;SDS011;10211;49.476;11.010;2023-03-14T08:21:00;0.50;;;0.50;;
16998;SDS011;10211;49.476;11.010;2023-03-14T08:23:28;2.50;;;0.70;;
16998;SDS011;10211;49.476;11.010;2023-03-14T08:25:55;0.70;;;0.70;;
16998;SDS011;10211;49.476;11.010;2023-03-14T08:28:23;0.50;;;0.50;;
16998;SDS011;10211;49.476;11.010;2023-03-14T08:30:55;0.43;;;0.43;;
16998;SDS011;10211;49.476;11.010;2023-03-14T08:33:22;1.03;;;0.70;;
16998;SDS011;10211;49.476;11.010;2023-03-14T08:35:51;2.43;;;0.60;;
16998;SDS011;10211;49.476;11.010;2023-03-14T08:38:19;2.43;;;0.70;;
16998;SDS011;10211;49.476;11.010;2023-03-14T08:40:46;0.77;;;0.60;;
16998;SDS011;10211;49.476;11.010;2023-03-14T08:43:14;0.70;;;0.70;;
16998;SDS011;10211;49.476;11.010;2023-03-14T08:45:42;0.93;;;0.70;;
16998;SDS011;10211;49.476;11.010;2023-03-14T08:48:09;1.73;;;0.60;;
16998;SDS011;10211;49.476;11.010;2023-03-14T08:50:35;2.43;;;0.50;;
16998;SDS011;10211;49.476;11.010;2023-03-14T08:53:02;0.90;;;0.57;;
16998;SDS011;10211;49.476;11.010;2023-03-14T08:55:29;0.70;;;0.70;;
16998;SDS011;10211;49.476;11.010;2023-03-14T08:57:55;0.87;;;0.80;;
16998;SDS011;10211;49.476;11.010;2023-03-14T09:00:22;0.90;;;0.90;;
16998;SDS011;10211;49.476;11.010;2023-03-14T09:02:50;1.07;;;0.50;;
16998;SDS011;10211;49.476;11.010;2023-03-14T09:05:17;2.13;;;0.93;;
16998;SDS011;10211;49.476;11.010;2023-03-14T09:07:44;2.23;;;0.90;;
16998;SDS011;10211;49.476;11.010;2023-03-14T09:10:11;0.77;;;0.77;;
16998;SDS011;10211;49.476;11.010;2023-03-14T09:12:37;1.17;;;0.90;;
16998;SDS011;10211;49.476;11.010;2023-03-14T09:15:04;1.07;;;0.60;;
16998;SDS011;10211;49.476;11.010;2023-03-14T09:17:32;0.50;;;0.50;;
16998;SDS011;10211;49.476;11.010;2023-03-14T09:20:00;1.00;;;0.50;;
16998;SDS011;10211;49.476;11.010;2023-03-14T09:22:31;2.33;;;0.83;;
16998;SDS011;10211;49.476;11.010;2023-03-14T09:24:58;0.77;;;0.77;;
16998;SDS011;10211;49.476;11.010;2023-03-14T09:27:25;1.93;;;1.43;;
16998;SDS011;10211;49.476;11.010;2023-03-14T09:29:51;2.90;;;0.70;;
16998;SDS011;10211;49.476;11.010;2023-03-14T09:32:18;0.83;;;0.60;;
16998;SDS011;10211;49.476;11.010;2023-03-14T09:34:45;0.50;;;0.50;;
16998;SDS011;10211;49.476;11.010;2023-03-14T09:37:13;0.77;;;0.50;;
16998;SDS011;10211;49.476;11.010;2023-03-14T09:39:41;0.70;;;0.60;;
16998;SDS011;10211;49.476;11.010;2023-03-14T09:42:08;0.50;;;0.40;;
16998;SDS011;10211;49.476;11.010;2023-03-14T09:44:42;0.57;;;0.47;;
16998;SDS011;10211;49.476;11.010;2023-03-14T09:47:13;1.60;;;0.60;;
16998;SDS011;10211;49.476;11.010;2023-03-14T09:49:44;1.90;;;0.60;;
16998;SDS011;10211;49.476;11.010;2023-03-14T09:52:14;1.00;;;0.57;;
16998;SDS011;10211;49.476;11.010;2023-03-14T09:54:43;1.53;;;0.50;;
16998;SDS011;10211;49.476;11.010;2023-03-14T09:57:13;4.20;;;0.50;;
16998;SDS011;10211;49.476;11.010;2023-03-14T09:59:43;0.93;;;0.50;;
16998;SDS011;10211;49.476;11.010;2023-03-14T10:02:13;0.43;;;0.43;;
16998;SDS011;10211;49.476;11.010;2023-03-14T10:04:43;0.50;;;0.50;;
16998;SDS011;10211;49.476;11.010;2023-03-14T10:07:13;1.47;;;0.70;;
16998;SDS011;10211;49.476;11.010;2023-03-14T10:09:44;0.47;;;0.37;;
16998;SDS011;10211;49.476;11.010;2023-03-14T10:12:13;1.03;;;0.50;;
16998;SDS011;10211;49.476;11.010;2023-03-14T10:14:45;2.10;;;0.40;;
16998;SDS011;10211;49.476;11.010;2023-03-14T10:17:13;0.60;;;0.60;;
16998;SDS011;10211;49.476;11.010;2023-03-14T10:19:51;0.50;;;0.50;;
16998;SDS011;10211;49.476;11.010;2023-03-14T10:22:22;2.53;;;0.43;;
16998;SDS011;10211;49.476;11.010;2023-03-14T10:24:51;1.10;;;0.60;;
16998;SDS011;10211;49.476;11.010;2023-03-14T10:27:21;1.30;;;0.53;;
16998;SDS011;10211;49.476;11.010;2023-03-14T10:29:53;0.40;;;0.40;;
16998;SDS011;10211;49.476;11.010;2023-03-14T10:32:21;3.57;;;0.50;;
16998;SDS011;10211;49.476;11.010;2023-03-14T10:35:03;1.77;;;0.80;;
16998;SDS011;10211;49.476;11.010;2023-03-14T10:37:35;0.70;;;0.50;;
16998;SDS011;10211;49.476;11.010;2023-03-14T10:40:02;5.67;;;0.70;;
16998;SDS011;10211;49.476;11.010;2023-03-14T10:42:32;0.40;;;0.30;;
16998;SDS011;10211;49.476;11.010;2023-03-14T10:45:05;3.80;;;0.77;;
16998;SDS011;10211;49.476;11.010;2023-03-14T10:47:48;1.40;;;0.63;;
16998;SDS011;10211;49.476;11.010;2023-03-14T10:50:22;3.10;;;0.50;;
16998;SDS011;10211;49.476;11.010;2023-03-14T10:52:52;2.20;;;0.60;;
16998;SDS011;10211;49.476;11.010;2023-03-14T10:55:29;0.50;;;0.50;;
16998;SDS011;10211;49.476;11.010;2023-03-14T10:58:16;2.10;;;0.30;;
16998;SDS011;10211;49.476;11.010;2023-03-14T11:00:45;0.97;;;0.40;;
16998;SDS011;10211;49.476;11.010;2023-03-14T11:03:16;0.50;;;0.30;;
16998;SDS011;10211;49.476;11.010;2023-03-14T11:05:46;0.67;;;0.40;;
16998;SDS011;10211;49.476;11.010;2023-03-14T11:08:22;0.30;;;0.30;;
16998;SDS011;10211;49.476;11.010;2023-03-14T11:10:53;0.50;;;0.50;;
16998;SDS011;10211;49.476;11.010;2023-03-14T11:13:23;0.63;;;0.30;;
16998;SDS011;10211;49.476;11.010;2023-03-14T11:15:58;0.73;;;0.50;;
16998;SDS011;10211;49.476;11.010;2023-03-14T11:21:49;0.80;;;0.40;;
16998;SDS011;10211;49.476;11.010;2023-03-14T11:24:32;0.60;;;0.60;;
16998;SDS011;10211;49.476;11.010;2023-03-14T11:27:06;0.40;;;0.40;;
16998;SDS011;10211;49.476;11.010;2023-03-14T11:29:42;3.80;;;0.60;;
16998;SDS011;10211;49.476;11.010;2023-03-14T11:32:19;0.53;;;0.50;;
16998;SDS011;10211;49.476;11.010;2023-03-14T11:34:50;0.40;;;0.40;;
16998;SDS011;10211;49.476;11.010;2023-03-14T11:37:20;0.23;;;0.23;;
16998;SDS011;10211;49.476;11.010;2023-03-14T11:39:56;0.93;;;0.30;;
16998;SDS011;10211;49.476;11.010;2023-03-14T11:42:28;1.43;;;0.20;;
16998;SDS011;10211;49.476;11.010;2023-03-14T11:44:55;1.60;;;0.30;;
16998;SDS011;10211;49.476;11.010;2023-03-14T11:47:24;0.20;;;0.20;;
16998;SDS011;10211;49.476;11.010;2023-03-14T11:49:56;0.30;;;0.30;;
16998;SDS011;10211;49.476;11.010;2023-03-14T11:52:29;0.30;;;0.30;;
16998;SDS011;10211;49.476;11.010;2023-03-14T11:55:02;0.88;;;0.20;;
16998;SDS011;10211;49.476;11.010;2023-03-14T11:57:38;0.20;;;0.20;;
16998;SDS011;10211;49.476;11.010;2023-03-14T12:00:12;0.70;;;0.30;;
16998;SDS011;10211;49.476;11.010;2023-03-14T12:02:44;0.20;;;0.20;;
16998;SDS011;10211;49.476;11.010;2023-03-14T12:05:27;0.20;;;0.20;;
16998;SDS011;10211;49.476;11.010;2023-03-14T12:11:01;0.15;;;0.15;;
16998;SDS011;10211;49.476;11.010;2023-03-14T12:13:36;5.72;;;1.35;;
16998;SDS011;10211;49.476;11.010;2023-03-14T12:16:04;0.20;;;0.20;;
16998;SDS011;10211;49.476;11.010;2023-03-14T12:18:33;0.30;;;0.30;;
16998;SDS011;10211;49.476;11.010;2023-03-14T12:21:03;0.22;;;0.22;;
16998;SDS011;10211;49.476;11.010;2023-03-14T12:23:34;0.80;;;0.30;;
16998;SDS011;10211;49.476;11.010;2023-03-14T12:26:08;0.20;;;0.20;;
16998;SDS011;10211;49.476;11.010;2023-03-14T12:28:41;0.20;;;0.20;;
16998;SDS011;10211;49.476;11.010;2023-03-14T12:34:03;0.20;;;0.20;;
16998;SDS011;10211;49.476;11.010;2023-03-14T12:36:54;0.20;;;0.20;;
16998;SDS011;10211;49.476;11.010;2023-03-14T12:39:29;0.27;;;0.27;;
16998;SDS011;10211;49.476;11.010;2023-03-14T12:42:03;3.83;;;0.37;;
16998;SDS011;10211;49.476;11.010;2023-03-14T12:44:44;0.30;;;0.30;;
16998;SDS011;10211;49.476;11.010;2023-03-14T12:50:42;1.33;;;0.30;;
16998;SDS011;10211;49.476;11.010;2023-03-14T12:56:21;0.10;;;0.10;;
16998;SDS011;10211;49.476;11.010;2023-03-14T12:59:09;0.20;;;0.20;;
16998;SDS011;10211;49.476;11.010;2023-03-14T13:01:55;1.10;;;0.30;;
16998;SDS011;10211;49.476;11.010;2023-03-14T13:04:26;0.30;;;0.30;;
16998;SDS011;10211;49.476;11.010;2023-03-14T13:06:56;0.40;;;0.37;;
16998;SDS011;10211;49.476;11.010;2023-03-14T13:12:28;0.30;;;0.30;;
16998;SDS011;10211;49.476;11.010;2023-03-14T13:15:01;0.57;;;0.30;;
16998;SDS011;10211;49.476;11.010;2023-03-14T13:17:39;0.20;;;0.20;;
16998;SDS011;10211;49.476;11.010;2023-03-14T13:20:10;0.30;;;0.30;;
16998;SDS011;10211;49.476;11.010;2023-03-14T13:22:38;0.33;;;0.33;;
16998;SDS011;10211;49.476;11.010;2023-03-14T13:25:12;0.20;;;0.20;;
16998;SDS011;10211;49.476;11.010;2023-03-14T13:27:39;0.20;;;0.20;;
16998;SDS011;10211;49.476;11.010;2023-03-14T13:30:19;0.30;;;0.30;;
16998;SDS011;10211;49.476;11.010;2023-03-14T13:32:48;0.30;;;0.30;;
16998;SDS011;10211;49.476;11.010;2023-03-14T13:35:17;0.30;;;0.30;;
16998;SDS011;10211;49.476;11.010;2023-03-14T13:37:45;0.40;;;0.40;;
16998;SDS011;10211;49.476;11.010;2023-03-14T13:40:19;1.40;;;0.40;;
16998;SDS011;10211;49.476;11.010;2023-03-14T13:42:49;0.27;;;0.27;;
16998;SDS011;10211;49.476;11.010;2023-03-14T13:45:29;0.23;;;0.23;;
16998;SDS011;10211;49.476;11.010;2023-03-14T13:47:56;0.20;;;0.20;;
16998;SDS011;10211;49.476;11.010;2023-03-14T13:50:22;0.20;;;0.20;;
16998;SDS011;10211;49.476;11.010;2023-03-14T13:52:54;1.90;;;0.30;;
16998;SDS011;10211;49.476;11.010;2023-03-14T13:55:21;0.30;;;0.30;;
16998;SDS011;10211;49.476;11.010;2023-03-14T13:57:49;1.90;;;0.53;;
16998;SDS011;10211;49.476;11.010;2023-03-14T14:00:21;0.20;;;0.20;;
16998;SDS011;10211;49.476;11.010;2023-03-14T14:02:53;0.83;;;0.40;;
16998;SDS011;10211;49.476;11.010;2023-03-14T14:05:21;0.40;;;0.40;;
16998;SDS011;10211;49.476;11.010;2023-03-14T14:07:48;6.07;;;0.60;;
16998;SDS011;10211;49.476;11.010;2023-03-14T14:10:16;0.40;;;0.40;;
16998;SDS011;10211;49.476;11.010;2023-03-14T14:12:44;2.77;;;0.50;;
16998;SDS011;10211;49.476;11.010;2023-03-14T14:15:16;0.40;;;0.40;;
16998;SDS011;10211;49.476;11.010;2023-03-14T14:17:46;0.30;;;0.30;;
16998;SDS011;10211;49.476;11.010;2023-03-14T14:20:20;0.30;;;0.30;;
16998;SDS011;10211;49.476;11.010;2023-03-14T14:22:49;0.30;;;0.30;;
16998;SDS011;10211;49.476;11.010;2023-03-14T14:25:17;0.40;;;0.40;;
16998;SDS011;10211;49.476;11.010;2023-03-14T14:27:46;0.40;;;0.40;;
16998;SDS011;10211;49.476;11.010;2023-03-14T14:30:25;0.50;;;0.50;;
16998;SDS011;10211;49.476;11.010;2023-03-14T14:33:10;0.20;;;0.20;;
16998;SDS011;10211;49.476;11.010;2023-03-14T14:35:52;0.27;;;0.20;;
16998;SDS011;10211;49.476;11.010;2023-03-14T14:38:21;0.33;;;0.33;;
16998;SDS011;10211;49.476;11.010;2023-03-14T14:40:48;0.40;;;0.40;;
16998;SDS011;10211;49.476;11.010;2023-03-14T14:43:18;0.50;;;0.50;;
16998;SDS011;10211;49.476;11.010;2023-03-14T14:45:49;0.83;;;0.83;;
16998;SDS011;10211;49.476;11.010;2023-03-14T14:48:19;1.13;;;1.03;;
16998;SDS011;10211;49.476;11.010;2023-03-14T14:50:54;0.20;;;0.20;;
16998;SDS011;10211;49.476;11.010;2023-03-14T14:53:27;0.60;;;0.40;;
16998;SDS011;10211;49.476;11.010;2023-03-14T14:55:56;0.30;;;0.30;;
16998;SDS011;10211;49.476;11.010;2023-03-14T14:58:25;0.83;;;0.30;;
16998;SDS011;10211;49.476;11.010;2023-03-14T15:00:54;0.30;;;0.30;;
16998;SDS011;10211;49.476;11.010;2023-03-14T15:03:25;0.27;;;0.27;;